sensor_id;sensor_type;location;lat;lon;timestamp;temperature;humidity
12152;DHT22;6139;51.274;7.128;2023-12-04T00:00:00;-0.20;1.00
12152;DHT22;6139;51.274;7.128;2023-12-04T00:01:03;-0.20;1.00
12152;DHT22;6139;51.274;7.128;2023-12-04T00:02:04;-0.20;1.00
12152;DHT22;6139;51.274;7.128;2023-12-04T00:03:06;-0.20;1.00
12152;DHT22;6139;51.274;7.128;2023-12-04T00:04:08;-0.20;1.00
12152;DHT22;6139;51.274;7.128;2023-12-04T00:05:10;-0.20;1.00
12152;DHT22;6139;51.274;7.128;2023-12-04T00:06:11;-0.20;1.00
12152;DHT22;6139;51.274;7.128;2023-12-04T00:07:13;-0.20;1.00
12152;DHT22;6139;51.274;7.128;2023-12-04T00:08:14;-0.10;1.00
12152;DHT22;6139;51.274;7.128;2023-12-04T00:09:16;-0.10;1.00
12152;DHT22;6139;51.274;7.128;2023-12-04T00:10:17;-0.20;1.00
12152;DHT22;6139;51.274;7.128;2023-12-04T00:11:19;-0.20;1.00
12152;DHT22;6139;51.274;7.128;2023-12-04T00:12:20;-0.10;1.00
12152;DHT22;6139;51.274;7.128;2023-12-04T00:13:22;-0.10;1.00
12152;DHT22;6139;51.274;7.128;2023-12-04T00:14:23;-0.10;1.00
12152;DHT22;6139;51.274;7.128;2023-12-04T00:15:24;-0.10;1.00
12152;DHT22;6139;51.274;7.128;2023-12-04T00:16:26;-0.10;1.00
12152;DHT22;6139;51.274;7.128;2023-12-04T00:17:27;-0.10;1.00
12152;DHT22;6139;51.274;7.128;2023-12-04T00:18:29;-0.10;1.00
12152;DHT22;6139;51.274;7.128;2023-12-04T00:19:32;-0.10;1.00
12152;DHT22;6139;51.274;7.128;2023-12-04T00:20:33;-0.10;1.00
12152;DHT22;6139;51.274;7.128;2023-12-04T00:21:34;-0.20;1.00
12152;DHT22;6139;51.274;7.128;2023-12-04T00:22:36;-0.10;1.00
12152;DHT22;6139;51.274;7.128;2023-12-04T00:23:38;-0.10;1.00
12152;DHT22;6139;51.274;7.128;2023-12-04T00:24:39;-0.10;1.00
12152;DHT22;6139;51.274;7.128;2023-12-04T00:25:40;-0.10;1.00
12152;DHT22;6139;51.274;7.128;2023-12-04T00:26:42;-0.10;1.00
12152;DHT22;6139;51.274;7.128;2023-12-04T00:27:43;-0.10;1.00
12152;DHT22;6139;51.274;7.128;2023-12-04T00:28:45;-0.10;1.00
12152;DHT22;6139;51.274;7.128;2023-12-04T00:29:46;-0.10;1.00
12152;DHT22;6139;51.274;7.128;2023-12-04T00:30:46;-0.10;1.00
12152;DHT22;6139;51.274;7.128;2023-12-04T00:31:48;-0.10;1.00
12152;DHT22;6139;51.274;7.128;2023-12-04T00:32:49;-0.10;1.00
12152;DHT22;6139;51.274;7.128;2023-12-04T00:33:51;-0.10;1.00
12152;DHT22;6139;51.274;7.128;2023-12-04T00:34:54;-0.10;1.00
12152;DHT22;6139;51.274;7.128;2023-12-04T00:35:57;-0.10;1.00
12152;DHT22;6139;51.274;7.128;2023-12-04T00:36:58;-0.10;1.00
12152;DHT22;6139;51.274;7.128;2023-12-04T00:38:00;-0.10;1.00
12152;DHT22;6139;51.274;7.128;2023-12-04T00:39:01;0.00;1.00
12152;DHT22;6139;51.274;7.128;2023-12-04T00:40:06;0.00;1.00
12152;DHT22;6139;51.274;7.128;2023-12-04T00:41:07;0.00;1.00
12152;DHT22;6139;51.274;7.128;2023-12-04T00:42:09;0.00;1.00
12152;DHT22;6139;51.274;7.128;2023-12-04T00:43:10;0.00;1.00
12152;DHT22;6139;51.274;7.128;2023-12-04T00:44:12;0.00;1.00
12152;DHT22;6139;51.274;7.128;2023-12-04T00:45:13;0.00;1.00
12152;DHT22;6139;51.274;7.128;2023-12-04T00:46:14;0.00;1.00
12152;DHT22;6139;51.274;7.128;2023-12-04T00:47:16;0.00;1.00
12152;DHT22;6139;51.274;7.128;2023-12-04T00:48:17;0.00;1.00
12152;DHT22;6139;51.274;7.128;2023-12-04T00:49:19;0.00;1.00
12152;DHT22;6139;51.274;7.128;2023-12-04T00:50:21;0.00;1.00
12152;DHT22;6139;51.274;7.128;2023-12-04T00:51:23;0.00;1.00
12152;DHT22;6139;51.274;7.128;2023-12-04T00:52:24;0.00;1.00
12152;DHT22;6139;51.274;7.128;2023-12-04T00:53:26;0.00;1.00
12152;DHT22;6139;51.274;7.128;2023-12-04T00:54:27;0.00;1.00
12152;DHT22;6139;51.274;7.128;2023-12-04T00:55:28;0.00;1.00
12152;DHT22;6139;51.274;7.128;2023-12-04T00:56:30;0.10;1.00
12152;DHT22;6139;51.274;7.128;2023-12-04T00:57:31;0.10;1.00
12152;DHT22;6139;51.274;7.128;2023-12-04T00:58:33;0.10;1.00
12152;DHT22;6139;51.274;7.128;2023-12-04T00:59:34;0.10;1.00
12152;DHT22;6139;51.274;7.128;2023-12-04T01:00:36;0.10;1.00
12152;DHT22;6139;51.274;7.128;2023-12-04T01:01:37;0.10;1.00
12152;DHT22;6139;51.274;7.128;2023-12-04T01:02:40;0.10;1.00
12152;DHT22;6139;51.274;7.128;2023-12-04T01:03:41;0.20;1.00
12152;DHT22;6139;51.274;7.128;2023-12-04T01:04:43;0.10;1.00
12152;DHT22;6139;51.274;7.128;2023-12-04T01:05:45;0.10;1.00
12152;DHT22;6139;51.274;7.128;2023-12-04T01:06:47;0.20;1.00
12152;DHT22;6139;51.274;7.128;2023-12-04T01:07:48;0.20;1.00
12152;DHT22;6139;51.274;7.128;2023-12-04T01:08:50;0.20;1.00
12152;DHT22;6139;51.274;7.128;2023-12-04T01:09:51;0.20;1.00
12152;DHT22;6139;51.274;7.128;2023-12-04T01:10:53;0.20;1.00
12152;DHT22;6139;51.274;7.128;2023-12-04T01:11:54;0.20;1.00
12152;DHT22;6139;51.274;7.128;2023-12-04T01:12:56;0.20;1.00
12152;DHT22;6139;51.274;7.128;2023-12-04T01:13:57;0.20;99.90
12152;DHT22;6139;51.274;7.128;2023-12-04T01:15:00;0.20;1.00
12152;DHT22;6139;51.274;7.128;2023-12-04T01:16:01;0.20;99.90
12152;DHT22;6139;51.274;7.128;2023-12-04T01:17:03;0.20;1.00
12152;DHT22;6139;51.274;7.128;2023-12-04T01:18:04;0.20;99.90
12152;DHT22;6139;51.274;7.128;2023-12-04T01:19:06;0.20;99.90
12152;DHT22;6139;51.274;7.128;2023-12-04T01:20:08;0.20;99.90
12152;DHT22;6139;51.274;7.128;2023-12-04T01:21:10;0.20;99.90
12152;DHT22;6139;51.274;7.128;2023-12-04T01:22:13;0.20;99.90
12152;DHT22;6139;51.274;7.128;2023-12-04T01:23:14;0.10;99.90
12152;DHT22;6139;51.274;7.128;2023-12-04T01:24:16;0.10;99.90
12152;DHT22;6139;51.274;7.128;2023-12-04T01:25:17;0.20;99.90
12152;DHT22;6139;51.274;7.128;2023-12-04T01:26:19;0.20;1.00
12152;DHT22;6139;51.274;7.128;2023-12-04T01:27:20;0.20;1.00
12152;DHT22;6139;51.274;7.128;2023-12-04T01:28:22;0.20;1.00
12152;DHT22;6139;51.274;7.128;2023-12-04T01:29:23;0.10;1.00
12152;DHT22;6139;51.274;7.128;2023-12-04T01:30:25;0.10;1.00
12152;DHT22;6139;51.274;7.128;2023-12-04T01:31:26;0.10;99.90
12152;DHT22;6139;51.274;7.128;2023-12-04T01:32:28;0.10;99.90
12152;DHT22;6139;51.274;7.128;2023-12-04T01:33:30;0.10;99.90
12152;DHT22;6139;51.274;7.128;2023-12-04T01:34:32;0.10;99.90
12152;DHT22;6139;51.274;7.128;2023-12-04T01:35:33;0.10;99.90
12152;DHT22;6139;51.274;7.128;2023-12-04T01:36:40;0.10;99.90
12152;DHT22;6139;51.274;7.128;2023-12-04T01:37:40;0.10;99.90
12152;DHT22;6139;51.274;7.128;2023-12-04T01:38:42;0.10;99.90
12152;DHT22;6139;51.274;7.128;2023-12-04T01:39:43;0.10;99.90
12152;DHT22;6139;51.274;7.128;2023-12-04T01:40:44;0.10;99.90
12152;DHT22;6139;51.274;7.128;2023-12-04T01:41:46;0.10;99.90
12152;DHT22;6139;51.274;7.128;2023-12-04T01:42:47;0.10;99.90
12152;DHT22;6139;51.274;7.128;2023-12-04T01:43:49;0.10;99.90
12152;DHT22;6139;51.274;7.128;2023-12-04T01:44:50;0.10;99.90
12152;DHT22;6139;51.274;7.128;2023-12-04T01:45:52;0.10;99.90
12152;DHT22;6139;51.274;7.128;2023-12-04T01:46:54;0.20;99.90
12152;DHT22;6139;51.274;7.128;2023-12-04T01:47:57;0.20;99.90
12152;DHT22;6139;51.274;7.128;2023-12-04T01:48:58;0.20;99.90
12152;DHT22;6139;51.274;7.128;2023-12-04T01:50:01;0.20;99.90
12152;DHT22;6139;51.274;7.128;2023-12-04T01:51:05;0.20;99.90
12152;DHT22;6139;51.274;7.128;2023-12-04T01:52:09;0.20;99.90
12152;DHT22;6139;51.274;7.128;2023-12-04T01:53:10;0.20;99.90
12152;DHT22;6139;51.274;7.128;2023-12-04T01:54:12;0.10;99.90
12152;DHT22;6139;51.274;7.128;2023-12-04T01:55:15;0.10;99.90
12152;DHT22;6139;51.274;7.128;2023-12-04T01:56:17;0.10;99.90
12152;DHT22;6139;51.274;7.128;2023-12-04T01:57:19;0.20;99.90
12152;DHT22;6139;51.274;7.128;2023-12-04T01:58:21;0.20;99.90
12152;DHT22;6139;51.274;7.128;2023-12-04T01:59:22;0.20;99.90
12152;DHT22;6139;51.274;7.128;2023-12-04T02:00:24;0.20;99.90
12152;DHT22;6139;51.274;7.128;2023-12-04T02:01:26;0.20;99.90
12152;DHT22;6139;51.274;7.128;2023-12-04T02:02:28;0.20;28.60
12152;DHT22;6139;51.274;7.128;2023-12-04T02:03:30;0.20;1.00
12152;DHT22;6139;51.274;7.128;2023-12-04T02:04:32;0.20;1.00
12152;DHT22;6139;51.274;7.128;2023-12-04T02:05:33;0.20;1.00
12152;DHT22;6139;51.274;7.128;2023-12-04T02:06:36;0.20;1.00
12152;DHT22;6139;51.274;7.128;2023-12-04T02:07:40;0.20;1.00
12152;DHT22;6139;51.274;7.128;2023-12-04T02:08:41;0.20;1.00
12152;DHT22;6139;51.274;7.128;2023-12-04T02:09:43;0.20;1.00
12152;DHT22;6139;51.274;7.128;2023-12-04T02:10:44;0.20;1.00
12152;DHT22;6139;51.274;7.128;2023-12-04T02:11:46;0.20;1.00
12152;DHT22;6139;51.274;7.128;2023-12-04T02:12:47;0.20;1.00
12152;DHT22;6139;51.274;7.128;2023-12-04T02:13:49;0.20;1.00
12152;DHT22;6139;51.274;7.128;2023-12-04T02:14:51;0.20;1.00
12152;DHT22;6139;51.274;7.128;2023-12-04T02:15:54;0.20;1.00
12152;DHT22;6139;51.274;7.128;2023-12-04T02:16:57;0.20;1.00
12152;DHT22;6139;51.274;7.128;2023-12-04T02:18:01;0.20;1.00
12152;DHT22;6139;51.274;7.128;2023-12-04T02:19:03;0.20;1.00
12152;DHT22;6139;51.274;7.128;2023-12-04T02:20:07;0.20;1.00
12152;DHT22;6139;51.274;7.128;2023-12-04T02:21:08;0.20;1.00
12152;DHT22;6139;51.274;7.128;2023-12-04T02:22:10;0.20;1.00
12152;DHT22;6139;51.274;7.128;2023-12-04T02:23:13;0.20;1.00
12152;DHT22;6139;51.274;7.128;2023-12-04T02:24:16;0.20;1.00
12152;DHT22;6139;51.274;7.128;2023-12-04T02:25:17;0.20;1.00
12152;DHT22;6139;51.274;7.128;2023-12-04T02:26:24;0.20;1.00
12152;DHT22;6139;51.274;7.128;2023-12-04T02:27:29;0.20;1.00
12152;DHT22;6139;51.274;7.128;2023-12-04T02:28:36;0.20;1.00
12152;DHT22;6139;51.274;7.128;2023-12-04T02:29:41;0.20;1.00
12152;DHT22;6139;51.274;7.128;2023-12-04T02:30:48;0.20;1.00
12152;DHT22;6139;51.274;7.128;2023-12-04T02:31:51;0.30;1.00
12152;DHT22;6139;51.274;7.128;2023-12-04T02:32:54;0.20;1.00
12152;DHT22;6139;51.274;7.128;2023-12-04T02:33:56;0.20;1.00
12152;DHT22;6139;51.274;7.128;2023-12-04T02:35:00;0.20;1.00
12152;DHT22;6139;51.274;7.128;2023-12-04T02:36:04;0.20;1.00
12152;DHT22;6139;51.274;7.128;2023-12-04T02:37:08;0.20;1.00
12152;DHT22;6139;51.274;7.128;2023-12-04T02:38:09;0.20;1.00
12152;DHT22;6139;51.274;7.128;2023-12-04T02:39:12;0.20;1.00
12152;DHT22;6139;51.274;7.128;2023-12-04T02:40:15;0.20;1.00
12152;DHT22;6139;51.274;7.128;2023-12-04T02:41:17;0.20;1.00
12152;DHT22;6139;51.274;7.128;2023-12-04T02:42:18;0.20;1.00
12152;DHT22;6139;51.274;7.128;2023-12-04T02:43:19;0.20;1.00
12152;DHT22;6139;51.274;7.128;2023-12-04T02:44:21;0.20;1.00
12152;DHT22;6139;51.274;7.128;2023-12-04T02:45:22;0.20;99.90
12152;DHT22;6139;51.274;7.128;2023-12-04T02:46:24;0.20;1.00
12152;DHT22;6139;51.274;7.128;2023-12-04T02:47:26;0.20;1.00
12152;DHT22;6139;51.274;7.128;2023-12-04T02:48:27;0.20;1.00
12152;DHT22;6139;51.274;7.128;2023-12-04T02:49:30;0.20;1.00
12152;DHT22;6139;51.274;7.128;2023-12-04T02:50:32;0.20;1.00
12152;DHT22;6139;51.274;7.128;2023-12-04T02:51:33;0.20;1.00
12152;DHT22;6139;51.274;7.128;2023-12-04T02:52:35;0.20;1.00
12152;DHT22;6139;51.274;7.128;2023-12-04T02:53:36;0.20;1.00
12152;DHT22;6139;51.274;7.128;2023-12-04T02:54:38;0.20;1.00
12152;DHT22;6139;51.274;7.128;2023-12-04T02:55:40;0.20;1.00
12152;DHT22;6139;51.274;7.128;2023-12-04T02:56:42;0.20;1.00
12152;DHT22;6139;51.274;7.128;2023-12-04T02:57:43;0.20;1.00
12152;DHT22;6139;51.274;7.128;2023-12-04T02:58:45;0.20;1.00
12152;DHT22;6139;51.274;7.128;2023-12-04T02:59:46;0.20;1.00
12152;DHT22;6139;51.274;7.128;2023-12-04T03:00:48;0.20;99.90
12152;DHT22;6139;51.274;7.128;2023-12-04T03:01:49;0.20;1.00
12152;DHT22;6139;51.274;7.128;2023-12-04T03:02:51;0.20;1.00
12152;DHT22;6139;51.274;7.128;2023-12-04T03:03:52;0.20;99.90
12152;DHT22;6139;51.274;7.128;2023-12-04T03:04:54;0.20;99.90
12152;DHT22;6139;51.274;7.128;2023-12-04T03:05:55;0.20;99.90
12152;DHT22;6139;51.274;7.128;2023-12-04T03:06:57;0.20;1.00
12152;DHT22;6139;51.274;7.128;2023-12-04T03:07:58;0.20;12.60
12152;DHT22;6139;51.274;7.128;2023-12-04T03:09:00;0.20;1.00
12152;DHT22;6139;51.274;7.128;2023-12-04T03:10:01;0.20;1.00
12152;DHT22;6139;51.274;7.128;2023-12-04T03:11:06;0.30;99.90
12152;DHT22;6139;51.274;7.128;2023-12-04T03:12:07;0.30;50.90
12152;DHT22;6139;51.274;7.128;2023-12-04T03:13:08;0.20;1.00
12152;DHT22;6139;51.274;7.128;2023-12-04T03:14:10;0.20;1.00
12152;DHT22;6139;51.274;7.128;2023-12-04T03:15:11;0.20;1.00
12152;DHT22;6139;51.274;7.128;2023-12-04T03:16:17;0.20;40.60
12152;DHT22;6139;51.274;7.128;2023-12-04T03:17:18;0.20;1.00
12152;DHT22;6139;51.274;7.128;2023-12-04T03:18:20;0.30;1.00
12152;DHT22;6139;51.274;7.128;2023-12-04T03:19:21;0.20;1.00
12152;DHT22;6139;51.274;7.128;2023-12-04T03:20:23;0.20;1.00
12152;DHT22;6139;51.274;7.128;2023-12-04T03:21:24;0.20;1.00
12152;DHT22;6139;51.274;7.128;2023-12-04T03:22:25;0.20;1.00
12152;DHT22;6139;51.274;7.128;2023-12-04T03:23:27;0.20;1.00
12152;DHT22;6139;51.274;7.128;2023-12-04T03:24:28;0.20;1.00
12152;DHT22;6139;51.274;7.128;2023-12-04T03:25:30;0.20;99.90
12152;DHT22;6139;51.274;7.128;2023-12-04T03:26:32;0.20;1.00
12152;DHT22;6139;51.274;7.128;2023-12-04T03:27:34;0.30;1.00
12152;DHT22;6139;51.274;7.128;2023-12-04T03:28:35;0.30;99.90
12152;DHT22;6139;51.274;7.128;2023-12-04T03:29:37;0.30;1.00
12152;DHT22;6139;51.274;7.128;2023-12-04T03:30:38;0.20;1.00
12152;DHT22;6139;51.274;7.128;2023-12-04T03:31:40;0.20;1.00
12152;DHT22;6139;51.274;7.128;2023-12-04T03:32:41;0.20;1.00
12152;DHT22;6139;51.274;7.128;2023-12-04T03:33:43;0.20;1.00
12152;DHT22;6139;51.274;7.128;2023-12-04T03:34:44;0.30;1.00
12152;DHT22;6139;51.274;7.128;2023-12-04T03:35:46;0.30;99.90
12152;DHT22;6139;51.274;7.128;2023-12-04T03:36:47;0.30;99.90
12152;DHT22;6139;51.274;7.128;2023-12-04T03:37:49;0.30;99.90
12152;DHT22;6139;51.274;7.128;2023-12-04T03:38:50;0.30;1.00
12152;DHT22;6139;51.274;7.128;2023-12-04T03:39:51;0.30;1.00
12152;DHT22;6139;51.274;7.128;2023-12-04T03:40:53;0.30;1.00
12152;DHT22;6139;51.274;7.128;2023-12-04T03:41:55;0.30;1.00
12152;DHT22;6139;51.274;7.128;2023-12-04T03:42:56;0.30;1.00
12152;DHT22;6139;51.274;7.128;2023-12-04T03:43:58;0.30;1.00
12152;DHT22;6139;51.274;7.128;2023-12-04T03:44:59;0.30;14.50
12152;DHT22;6139;51.274;7.128;2023-12-04T03:46:01;0.30;1.00
12152;DHT22;6139;51.274;7.128;2023-12-04T03:47:02;0.30;1.00
12152;DHT22;6139;51.274;7.128;2023-12-04T03:48:04;0.30;90.20
12152;DHT22;6139;51.274;7.128;2023-12-04T03:49:05;0.30;48.30
12152;DHT22;6139;51.274;7.128;2023-12-04T03:50:08;0.30;1.00
12152;DHT22;6139;51.274;7.128;2023-12-04T03:51:09;0.30;1.00
12152;DHT22;6139;51.274;7.128;2023-12-04T03:52:11;0.30;1.00
12152;DHT22;6139;51.274;7.128;2023-12-04T03:53:12;0.30;1.00
12152;DHT22;6139;51.274;7.128;2023-12-04T03:54:14;0.30;1.00
12152;DHT22;6139;51.274;7.128;2023-12-04T03:55:15;0.30;1.00
12152;DHT22;6139;51.274;7.128;2023-12-04T03:56:19;0.30;99.90
12152;DHT22;6139;51.274;7.128;2023-12-04T03:57:22;0.30;1.00
12152;DHT22;6139;51.274;7.128;2023-12-04T03:58:24;0.30;1.00
12152;DHT22;6139;51.274;7.128;2023-12-04T03:59:25;0.30;1.00
12152;DHT22;6139;51.274;7.128;2023-12-04T04:00:27;0.30;99.90
12152;DHT22;6139;51.274;7.128;2023-12-04T04:01:28;0.30;99.90
12152;DHT22;6139;51.274;7.128;2023-12-04T04:02:30;0.30;1.00
12152;DHT22;6139;51.274;7.128;2023-12-04T04:03:31;0.30;1.00
12152;DHT22;6139;51.274;7.128;2023-12-04T04:04:33;0.30;1.00
12152;DHT22;6139;51.274;7.128;2023-12-04T04:05:33;0.30;1.00
12152;DHT22;6139;51.274;7.128;2023-12-04T04:06:35;0.30;99.90
12152;DHT22;6139;51.274;7.128;2023-12-04T04:07:39;0.20;82.00
12152;DHT22;6139;51.274;7.128;2023-12-04T04:08:42;0.30;1.00
12152;DHT22;6139;51.274;7.128;2023-12-04T04:09:43;0.30;1.00
12152;DHT22;6139;51.274;7.128;2023-12-04T04:10:45;0.30;1.00
12152;DHT22;6139;51.274;7.128;2023-12-04T04:11:46;0.30;1.00
12152;DHT22;6139;51.274;7.128;2023-12-04T04:12:49;0.30;30.50
12152;DHT22;6139;51.274;7.128;2023-12-04T04:13:50;0.30;1.00
12152;DHT22;6139;51.274;7.128;2023-12-04T04:14:52;0.30;1.00
12152;DHT22;6139;51.274;7.128;2023-12-04T04:15:53;0.30;1.00
12152;DHT22;6139;51.274;7.128;2023-12-04T04:16:55;0.30;99.90
12152;DHT22;6139;51.274;7.128;2023-12-04T04:17:56;0.30;1.00
12152;DHT22;6139;51.274;7.128;2023-12-04T04:18:58;0.30;1.00
12152;DHT22;6139;51.274;7.128;2023-12-04T04:19:59;0.30;1.00
12152;DHT22;6139;51.274;7.128;2023-12-04T04:21:01;0.30;1.00
12152;DHT22;6139;51.274;7.128;2023-12-04T04:22:03;0.30;1.00
12152;DHT22;6139;51.274;7.128;2023-12-04T04:23:05;0.30;1.00
12152;DHT22;6139;51.274;7.128;2023-12-04T04:24:06;0.40;1.00
12152;DHT22;6139;51.274;7.128;2023-12-04T04:25:08;0.40;1.00
12152;DHT22;6139;51.274;7.128;2023-12-04T04:26:09;0.40;1.00
12152;DHT22;6139;51.274;7.128;2023-12-04T04:27:10;0.40;1.00
12152;DHT22;6139;51.274;7.128;2023-12-04T04:28:13;0.40;1.00
12152;DHT22;6139;51.274;7.128;2023-12-04T04:29:14;0.40;1.00
12152;DHT22;6139;51.274;7.128;2023-12-04T04:30:15;0.40;1.00
12152;DHT22;6139;51.274;7.128;2023-12-04T04:31:18;0.40;1.00
12152;DHT22;6139;51.274;7.128;2023-12-04T04:32:19;0.40;1.00
12152;DHT22;6139;51.274;7.128;2023-12-04T04:33:21;0.40;1.00
12152;DHT22;6139;51.274;7.128;2023-12-04T04:34:22;0.40;1.00
12152;DHT22;6139;51.274;7.128;2023-12-04T04:35:24;0.40;1.00
12152;DHT22;6139;51.274;7.128;2023-12-04T04:36:25;0.40;1.00
12152;DHT22;6139;51.274;7.128;2023-12-04T04:37:27;0.40;1.00
12152;DHT22;6139;51.274;7.128;2023-12-04T04:38:27;0.50;1.00
12152;DHT22;6139;51.274;7.128;2023-12-04T04:39:30;0.50;1.00
12152;DHT22;6139;51.274;7.128;2023-12-04T04:40:31;0.50;1.00
12152;DHT22;6139;51.274;7.128;2023-12-04T04:41:32;0.50;1.00
12152;DHT22;6139;51.274;7.128;2023-12-04T04:42:33;0.50;1.00
12152;DHT22;6139;51.274;7.128;2023-12-04T04:43:37;0.50;1.00
12152;DHT22;6139;51.274;7.128;2023-12-04T04:44:38;0.50;1.00
12152;DHT22;6139;51.274;7.128;2023-12-04T04:45:40;0.50;1.00
12152;DHT22;6139;51.274;7.128;2023-12-04T04:46:41;0.40;1.00
12152;DHT22;6139;51.274;7.128;2023-12-04T04:47:42;0.50;1.00
12152;DHT22;6139;51.274;7.128;2023-12-04T04:48:43;0.50;1.00
12152;DHT22;6139;51.274;7.128;2023-12-04T04:49:45;0.50;1.00
12152;DHT22;6139;51.274;7.128;2023-12-04T04:50:46;0.50;99.90
12152;DHT22;6139;51.274;7.128;2023-12-04T04:51:48;0.50;1.00
12152;DHT22;6139;51.274;7.128;2023-12-04T04:52:49;0.50;1.00
12152;DHT22;6139;51.274;7.128;2023-12-04T04:53:50;0.50;99.90
12152;DHT22;6139;51.274;7.128;2023-12-04T04:54:52;0.50;1.00
12152;DHT22;6139;51.274;7.128;2023-12-04T04:55:54;0.50;1.00
12152;DHT22;6139;51.274;7.128;2023-12-04T04:56:56;0.50;99.90
12152;DHT22;6139;51.274;7.128;2023-12-04T04:57:57;0.50;99.90
12152;DHT22;6139;51.274;7.128;2023-12-04T04:59:00;0.50;99.90
12152;DHT22;6139;51.274;7.128;2023-12-04T05:00:01;0.50;1.00
12152;DHT22;6139;51.274;7.128;2023-12-04T05:01:04;0.50;1.00
12152;DHT22;6139;51.274;7.128;2023-12-04T05:02:05;0.50;99.90
12152;DHT22;6139;51.274;7.128;2023-12-04T05:03:07;0.50;99.90
12152;DHT22;6139;51.274;7.128;2023-12-04T05:04:08;0.40;87.00
12152;DHT22;6139;51.274;7.128;2023-12-04T05:05:11;0.40;99.90
12152;DHT22;6139;51.274;7.128;2023-12-04T05:06:12;0.40;1.00
12152;DHT22;6139;51.274;7.128;2023-12-04T05:07:15;0.40;99.90
12152;DHT22;6139;51.274;7.128;2023-12-04T05:08:16;0.40;99.90
12152;DHT22;6139;51.274;7.128;2023-12-04T05:09:18;0.40;1.00
12152;DHT22;6139;51.274;7.128;2023-12-04T05:10:19;0.40;1.00
12152;DHT22;6139;51.274;7.128;2023-12-04T05:11:21;0.40;1.00
12152;DHT22;6139;51.274;7.128;2023-12-04T05:12:22;0.40;1.00
12152;DHT22;6139;51.274;7.128;2023-12-04T05:13:24;0.40;1.00
12152;DHT22;6139;51.274;7.128;2023-12-04T05:14:26;0.40;29.70
12152;DHT22;6139;51.274;7.128;2023-12-04T05:15:28;0.40;33.30
12152;DHT22;6139;51.274;7.128;2023-12-04T05:16:29;0.40;99.90
12152;DHT22;6139;51.274;7.128;2023-12-04T05:17:31;0.40;1.00
12152;DHT22;6139;51.274;7.128;2023-12-04T05:18:32;0.40;99.90
12152;DHT22;6139;51.274;7.128;2023-12-04T05:19:33;0.40;1.00
12152;DHT22;6139;51.274;7.128;2023-12-04T05:20:35;0.40;99.90
12152;DHT22;6139;51.274;7.128;2023-12-04T05:21:36;0.40;1.00
12152;DHT22;6139;51.274;7.128;2023-12-04T05:22:38;0.40;1.00
12152;DHT22;6139;51.274;7.128;2023-12-04T05:23:39;0.30;99.90
12152;DHT22;6139;51.274;7.128;2023-12-04T05:24:40;0.30;1.00
12152;DHT22;6139;51.274;7.128;2023-12-04T05:25:42;0.30;1.00
12152;DHT22;6139;51.274;7.128;2023-12-04T05:26:43;0.30;1.00
12152;DHT22;6139;51.274;7.128;2023-12-04T05:27:45;0.30;1.00
12152;DHT22;6139;51.274;7.128;2023-12-04T05:28:46;0.30;1.00
12152;DHT22;6139;51.274;7.128;2023-12-04T05:29:49;0.30;1.00
12152;DHT22;6139;51.274;7.128;2023-12-04T05:30:50;0.30;1.00
12152;DHT22;6139;51.274;7.128;2023-12-04T05:31:52;0.30;1.00
12152;DHT22;6139;51.274;7.128;2023-12-04T05:32:53;0.30;99.90
12152;DHT22;6139;51.274;7.128;2023-12-04T05:33:56;0.30;1.00
12152;DHT22;6139;51.274;7.128;2023-12-04T05:34:57;0.30;99.90
12152;DHT22;6139;51.274;7.128;2023-12-04T05:35:59;0.30;1.00
12152;DHT22;6139;51.274;7.128;2023-12-04T05:37:00;0.30;99.90
12152;DHT22;6139;51.274;7.128;2023-12-04T05:38:03;0.30;99.90
12152;DHT22;6139;51.274;7.128;2023-12-04T05:39:04;0.30;1.00
12152;DHT22;6139;51.274;7.128;2023-12-04T05:40:07;0.30;99.90
12152;DHT22;6139;51.274;7.128;2023-12-04T05:41:08;0.30;1.00
12152;DHT22;6139;51.274;7.128;2023-12-04T05:42:09;0.30;95.20
12152;DHT22;6139;51.274;7.128;2023-12-04T05:43:11;0.30;1.00
12152;DHT22;6139;51.274;7.128;2023-12-04T05:44:12;0.30;99.90
12152;DHT22;6139;51.274;7.128;2023-12-04T05:45:16;0.20;1.00
12152;DHT22;6139;51.274;7.128;2023-12-04T05:46:16;0.20;51.70
12152;DHT22;6139;51.274;7.128;2023-12-04T05:47:18;0.30;1.00
12152;DHT22;6139;51.274;7.128;2023-12-04T05:48:19;0.20;1.00
12152;DHT22;6139;51.274;7.128;2023-12-04T05:49:21;0.20;1.00
12152;DHT22;6139;51.274;7.128;2023-12-04T05:50:22;0.20;99.90
12152;DHT22;6139;51.274;7.128;2023-12-04T05:51:24;0.30;1.00
12152;DHT22;6139;51.274;7.128;2023-12-04T05:52:25;0.30;1.00
12152;DHT22;6139;51.274;7.128;2023-12-04T05:53:27;0.30;1.00
12152;DHT22;6139;51.274;7.128;2023-12-04T05:54:29;0.30;1.00
12152;DHT22;6139;51.274;7.128;2023-12-04T05:55:32;0.30;1.00
12152;DHT22;6139;51.274;7.128;2023-12-04T05:56:32;0.30;1.00
12152;DHT22;6139;51.274;7.128;2023-12-04T05:57:36;0.30;1.00
12152;DHT22;6139;51.274;7.128;2023-12-04T05:58:38;0.20;1.00
12152;DHT22;6139;51.274;7.128;2023-12-04T05:59:39;0.30;1.00
12152;DHT22;6139;51.274;7.128;2023-12-04T06:00:43;0.30;1.00
12152;DHT22;6139;51.274;7.128;2023-12-04T06:01:44;0.30;1.00
12152;DHT22;6139;51.274;7.128;2023-12-04T06:02:46;0.20;1.00
12152;DHT22;6139;51.274;7.128;2023-12-04T06:03:47;0.20;1.00
12152;DHT22;6139;51.274;7.128;2023-12-04T06:04:49;0.20;99.90
12152;DHT22;6139;51.274;7.128;2023-12-04T06:05:50;0.20;99.90
12152;DHT22;6139;51.274;7.128;2023-12-04T06:06:52;0.20;99.90
12152;DHT22;6139;51.274;7.128;2023-12-04T06:07:53;0.20;1.00
12152;DHT22;6139;51.274;7.128;2023-12-04T06:08:55;0.20;99.90
12152;DHT22;6139;51.274;7.128;2023-12-04T06:09:56;0.20;1.00
12152;DHT22;6139;51.274;7.128;2023-12-04T06:10:58;0.20;99.90
12152;DHT22;6139;51.274;7.128;2023-12-04T06:11:59;0.20;1.00
12152;DHT22;6139;51.274;7.128;2023-12-04T06:13:08;0.20;99.90
12152;DHT22;6139;51.274;7.128;2023-12-04T06:14:09;0.20;99.90
12152;DHT22;6139;51.274;7.128;2023-12-04T06:15:12;0.30;99.90
12152;DHT22;6139;51.274;7.128;2023-12-04T06:16:15;0.30;1.00
12152;DHT22;6139;51.274;7.128;2023-12-04T06:17:16;0.20;1.00
12152;DHT22;6139;51.274;7.128;2023-12-04T06:18:18;0.20;1.00
12152;DHT22;6139;51.274;7.128;2023-12-04T06:19:21;0.20;1.00
12152;DHT22;6139;51.274;7.128;2023-12-04T06:20:22;0.20;99.90
12152;DHT22;6139;51.274;7.128;2023-12-04T06:21:24;0.20;1.00
12152;DHT22;6139;51.274;7.128;2023-12-04T06:22:25;0.20;1.00
12152;DHT22;6139;51.274;7.128;2023-12-04T06:23:27;0.20;1.00
12152;DHT22;6139;51.274;7.128;2023-12-04T06:24:29;0.10;1.00
12152;DHT22;6139;51.274;7.128;2023-12-04T06:25:32;0.10;1.00
12152;DHT22;6139;51.274;7.128;2023-12-04T06:26:33;0.10;1.00
12152;DHT22;6139;51.274;7.128;2023-12-04T06:27:37;0.10;1.00
12152;DHT22;6139;51.274;7.128;2023-12-04T06:28:39;0.10;1.00
12152;DHT22;6139;51.274;7.128;2023-12-04T06:29:43;0.10;1.00
12152;DHT22;6139;51.274;7.128;2023-12-04T06:30:44;0.10;1.00
12152;DHT22;6139;51.274;7.128;2023-12-04T06:31:47;0.10;1.00
12152;DHT22;6139;51.274;7.128;2023-12-04T06:32:50;0.10;1.00
12152;DHT22;6139;51.274;7.128;2023-12-04T06:33:51;0.10;1.00
12152;DHT22;6139;51.274;7.128;2023-12-04T06:34:54;0.10;1.00
12152;DHT22;6139;51.274;7.128;2023-12-04T06:35:56;0.10;1.00
12152;DHT22;6139;51.274;7.128;2023-12-04T06:36:59;0.10;1.00
12152;DHT22;6139;51.274;7.128;2023-12-04T06:38:05;0.10;1.00
12152;DHT22;6139;51.274;7.128;2023-12-04T06:39:10;0.10;1.00
12152;DHT22;6139;51.274;7.128;2023-12-04T06:40:12;0.10;99.90
12152;DHT22;6139;51.274;7.128;2023-12-04T06:41:15;0.10;99.90
12152;DHT22;6139;51.274;7.128;2023-12-04T06:42:16;0.10;1.00
12152;DHT22;6139;51.274;7.128;2023-12-04T06:43:19;0.10;1.00
12152;DHT22;6139;51.274;7.128;2023-12-04T06:44:20;0.10;13.50
12152;DHT22;6139;51.274;7.128;2023-12-04T06:45:23;0.10;1.00
12152;DHT22;6139;51.274;7.128;2023-12-04T06:46:25;0.10;1.00
12152;DHT22;6139;51.274;7.128;2023-12-04T06:47:31;0.10;1.00